createdAt,value
2018-02-01T00:00:18.462Z,0.00
2018-02-01T00:01:18.881Z,0.00
2018-02-01T00:02:19.302Z,0.00
2018-02-01T00:03:19.727Z,0.00
2018-02-01T00:04:20.148Z,0.00
2018-02-01T00:05:20.574Z,0.00
2018-02-01T00:06:20.996Z,0.00
2018-02-01T00:07:21.421Z,0.00
2018-02-01T00:08:21.843Z,0.00
2018-02-01T00:09:22.267Z,0.00
2018-02-01T00:10:22.688Z,0.00
2018-02-01T00:11:23.119Z,0.00
2018-02-01T00:12:23.533Z,0.00
2018-02-01T00:13:23.964Z,0.00
2018-02-01T00:14:24.381Z,0.00
2018-02-01T00:15:24.808Z,0.00
2018-02-01T00:16:25.230Z,0.00
2018-02-01T00:17:25.709Z,0.00
2018-02-01T00:18:26.080Z,0.00
2018-02-01T00:19:26.501Z,0.00
2018-02-01T00:20:26.925Z,0.00
2018-02-01T00:21:27.350Z,0.00
2018-02-01T00:22:27.771Z,0.00
2018-02-01T00:23:28.203Z,0.00
2018-02-01T00:24:28.618Z,0.00
2018-02-01T00:25:29.041Z,0.00
2018-02-01T00:26:29.463Z,0.00
2018-02-01T00:27:29.887Z,0.00
2018-02-01T00:28:30.308Z,0.00
2018-02-01T00:29:30.739Z,0.00
2018-02-01T00:30:31.155Z,0.00
2018-02-01T00:31:31.584Z,0.00
2018-02-01T00:32:31.999Z,0.00
2018-02-01T00:33:32.426Z,0.00
2018-02-01T00:34:32.849Z,0.00
2018-02-01T00:35:33.275Z,0.00
2018-02-01T00:36:33.693Z,0.00
2018-02-01T00:37:34.115Z,0.00
2018-02-01T00:38:34.544Z,0.00
2018-02-01T00:39:34.967Z,0.00
2018-02-01T00:40:35.387Z,0.00
2018-02-01T00:41:35.811Z,0.00
2018-02-01T00:42:36.233Z,0.00
2018-02-01T00:43:36.658Z,0.00
2018-02-01T00:44:37.078Z,0.00
2018-02-01T00:45:37.504Z,0.00
2018-02-01T00:46:37.929Z,0.00
2018-02-01T00:47:38.354Z,0.00
2018-02-01T00:48:38.769Z,0.00
2018-02-01T00:49:39.198Z,0.00
2018-02-01T00:50:39.616Z,0.00
2018-02-01T00:51:40.040Z,0.00
2018-02-01T00:52:40.470Z,0.00
2018-02-01T00:53:40.888Z,0.00
2018-02-01T00:54:41.307Z,0.00
2018-02-01T00:55:41.734Z,0.00
2018-02-01T00:56:42.156Z,0.00
2018-02-01T00:57:42.579Z,0.00
2018-02-01T00:58:43.026Z,0.00
2018-02-01T00:59:43.424Z,0.00
2018-02-01T01:00:43.846Z,0.00
2018-02-01T01:01:44.270Z,0.00
2018-02-01T01:02:44.691Z,0.00
2018-02-01T01:03:45.116Z,0.00
2018-02-01T01:04:45.535Z,0.00
2018-02-01T01:05:45.960Z,0.00
2018-02-01T01:06:46.384Z,0.00
2018-02-01T01:07:46.807Z,0.00
2018-02-01T01:08:47.264Z,0.00
2018-02-01T01:09:47.652Z,0.00
2018-02-01T01:10:48.076Z,0.00
2018-02-01T01:11:48.511Z,0.00
2018-02-01T01:12:48.925Z,0.00
2018-02-01T01:13:49.390Z,0.00
2018-02-01T01:14:49.767Z,0.00
2018-02-01T01:15:50.187Z,0.00
2018-02-01T01:16:50.608Z,0.00
2018-02-01T01:17:51.043Z,0.00
2018-02-01T01:18:51.459Z,0.00
2018-02-01T01:19:51.882Z,0.00
2018-02-01T01:20:52.307Z,0.00
2018-02-01T01:21:52.723Z,0.00
2018-02-01T01:22:53.148Z,0.00
2018-02-01T01:23:53.577Z,0.00
2018-02-01T01:24:53.998Z,0.00
2018-02-01T01:25:54.417Z,0.00
2018-02-01T01:26:54.836Z,0.00
2018-02-01T01:27:55.265Z,0.00
2018-02-01T01:28:55.689Z,0.00
2018-02-01T01:29:56.107Z,0.00
2018-02-01T01:30:56.531Z,0.00
2018-02-01T01:31:56.955Z,0.00
2018-02-01T01:32:57.373Z,0.00
2018-02-01T01:33:57.810Z,0.00
2018-02-01T01:34:58.227Z,0.00
2018-02-01T01:35:58.646Z,0.00
2018-02-01T01:36:59.066Z,0.00
2018-02-01T01:37:59.526Z,0.00
2018-02-01T01:38:59.910Z,0.00
2018-02-01T01:40:00.333Z,0.00
2018-02-01T01:41:00.758Z,0.00
2018-02-01T01:42:01.186Z,0.00
2018-02-01T01:43:01.604Z,0.00
2018-02-01T01:44:02.022Z,0.00
2018-02-01T01:45:02.448Z,0.00
2018-02-01T01:46:02.875Z,0.00
2018-02-01T01:47:03.290Z,0.00
2018-02-01T01:48:03.711Z,0.00
2018-02-01T01:49:04.136Z,0.00
2018-02-01T01:50:04.566Z,0.00
2018-02-01T01:51:04.985Z,0.00
2018-02-01T01:52:05.402Z,0.00
2018-02-01T01:53:05.830Z,0.00
2018-02-01T01:54:06.250Z,0.00
2018-02-01T01:55:06.674Z,0.00
2018-02-01T01:56:07.094Z,0.00
2018-02-01T01:57:07.524Z,0.00
2018-02-01T01:58:07.938Z,0.00
2018-02-01T01:59:08.364Z,0.00
2018-02-01T02:00:08.785Z,0.00
2018-02-01T02:01:09.233Z,0.00
2018-02-01T02:02:09.655Z,0.00
2018-02-01T02:03:10.053Z,0.00
2018-02-01T02:04:10.476Z,0.00
2018-02-01T02:05:10.897Z,0.00
2018-02-01T02:06:11.318Z,0.00
2018-02-01T02:07:11.744Z,0.00
2018-02-01T02:08:12.163Z,0.00
2018-02-01T02:09:12.587Z,0.00
2018-02-01T02:10:13.014Z,0.00
2018-02-01T02:11:13.429Z,0.00
2018-02-01T02:12:13.853Z,0.00
2018-02-01T02:13:14.280Z,0.00
2018-02-01T02:14:14.698Z,0.00
2018-02-01T02:15:15.121Z,0.00
2018-02-01T02:16:15.550Z,0.00
2018-02-01T02:17:15.962Z,0.00
2018-02-01T02:18:16.444Z,0.00
2018-02-01T02:19:16.808Z,0.00
2018-02-01T02:20:17.234Z,0.00
2018-02-01T02:21:17.656Z,0.00
2018-02-01T02:22:18.078Z,0.00
2018-02-01T02:23:18.507Z,0.00
2018-02-01T02:24:18.925Z,0.00
2018-02-01T02:25:19.346Z,0.00
2018-02-01T02:26:19.768Z,0.00
2018-02-01T02:27:20.188Z,0.00
2018-02-01T02:28:20.609Z,0.00
2018-02-01T02:29:21.032Z,0.00
2018-02-01T02:30:21.464Z,0.00
2018-02-01T02:31:21.879Z,0.00
2018-02-01T02:32:22.305Z,0.00
2018-02-01T02:33:22.721Z,0.00
2018-02-01T02:34:23.151Z,0.00
2018-02-01T02:35:23.566Z,0.00
2018-02-01T02:36:23.996Z,0.00
2018-02-01T02:37:24.414Z,0.00
2018-02-01T02:38:24.840Z,0.00
2018-02-01T02:39:25.258Z,0.00
2018-02-01T02:40:25.679Z,0.00
2018-02-01T02:41:26.102Z,0.00
2018-02-01T02:42:26.526Z,0.00
2018-02-01T02:43:26.972Z,0.00
2018-02-01T02:44:27.389Z,0.00
2018-02-01T02:45:27.791Z,0.00
2018-02-01T02:46:28.221Z,0.00
2018-02-01T02:47:28.636Z,0.00
2018-02-01T02:48:29.068Z,0.00
2018-02-01T02:49:29.483Z,0.00
2018-02-01T02:50:29.909Z,0.00
2018-02-01T02:51:30.333Z,0.00
2018-02-01T02:52:30.752Z,0.00
2018-02-01T02:53:31.174Z,0.00
2018-02-01T02:54:31.600Z,0.00
2018-02-01T02:55:32.021Z,0.00
2018-02-01T02:56:32.440Z,0.00
2018-02-01T02:57:32.864Z,0.00
2018-02-01T02:58:33.288Z,0.00
2018-02-01T02:59:33.713Z,0.00
2018-02-01T03:00:34.130Z,0.00
2018-02-01T03:01:34.553Z,0.00
2018-02-01T03:02:34.988Z,0.00
2018-02-01T03:03:35.407Z,0.00
2018-02-01T03:04:35.819Z,0.00
2018-02-01T03:05:36.246Z,0.00
2018-02-01T03:06:36.666Z,0.00
2018-02-01T03:07:37.090Z,0.00
2018-02-01T03:08:37.510Z,0.00
2018-02-01T03:09:37.935Z,0.00
2018-02-01T03:10:38.357Z,0.00
2018-02-01T03:11:38.776Z,0.00
2018-02-01T03:12:39.202Z,0.00
2018-02-01T03:13:39.622Z,0.00
2018-02-01T03:14:40.050Z,0.00
2018-02-01T03:15:40.466Z,0.00
2018-02-01T03:16:40.893Z,0.00
2018-02-01T03:17:41.314Z,0.00
2018-02-01T03:18:41.734Z,0.00
2018-02-01T03:19:42.163Z,0.00
2018-02-01T03:20:42.583Z,0.00
2018-02-01T03:21:43.003Z,0.00
2018-02-01T03:22:43.427Z,0.00
2018-02-01T03:23:43.850Z,0.00
2018-02-01T03:24:44.272Z,0.00
2018-02-01T03:25:44.690Z,0.00
2018-02-01T03:26:45.139Z,0.00
2018-02-01T03:27:45.571Z,0.00
2018-02-01T03:28:45.960Z,0.00
2018-02-01T03:29:46.381Z,0.00
2018-02-01T03:30:46.811Z,0.00
2018-02-01T03:31:47.228Z,0.00
2018-02-01T03:32:47.750Z,0.00
2018-02-01T03:33:48.061Z,0.00
2018-02-01T03:34:48.492Z,0.00
2018-02-01T03:35:48.916Z,0.00
2018-02-01T03:36:49.337Z,0.00
2018-02-01T03:37:49.758Z,0.00
2018-02-01T03:38:50.180Z,0.00
2018-02-01T03:39:50.601Z,0.00
2018-02-01T03:40:51.037Z,0.00
2018-02-01T03:41:51.448Z,0.00
2018-02-01T03:42:51.872Z,0.00
2018-02-01T03:43:52.292Z,0.00
2018-02-01T03:44:52.713Z,0.00
2018-02-01T03:45:53.135Z,0.00
2018-02-01T03:46:53.567Z,0.00
2018-02-01T03:47:53.984Z,0.00
2018-02-01T03:48:54.406Z,0.00
2018-02-01T03:49:54.822Z,0.00
2018-02-01T03:50:55.248Z,0.00
2018-02-01T03:51:55.667Z,0.00
2018-02-01T03:52:56.091Z,0.00
2018-02-01T03:53:56.518Z,0.00
2018-02-01T03:54:56.938Z,0.00
2018-02-01T03:55:57.360Z,0.00
2018-02-01T03:56:57.802Z,0.00
2018-02-01T03:57:58.217Z,0.00
2018-02-01T03:58:58.698Z,0.00
2018-02-01T03:59:59.050Z,0.00
2018-02-01T04:00:59.472Z,0.00
2018-02-01T04:01:59.891Z,0.00
2018-02-01T04:03:00.318Z,0.00
2018-02-01T04:04:00.733Z,0.00
2018-02-01T04:05:01.168Z,0.00
2018-02-01T04:06:01.583Z,0.00
2018-02-01T04:07:02.001Z,0.00
2018-02-01T04:08:02.432Z,0.00
2018-02-01T04:09:02.846Z,0.00
2018-02-01T04:10:03.272Z,0.00
2018-02-01T04:11:03.700Z,0.00
2018-02-01T04:12:04.124Z,0.00
2018-02-01T04:13:04.536Z,0.00
2018-02-01T04:14:04.959Z,0.00
2018-02-01T04:15:05.380Z,0.00
2018-02-01T04:16:05.810Z,0.00
2018-02-01T04:17:06.228Z,0.00
2018-02-01T04:18:06.646Z,0.00
2018-02-01T04:19:07.072Z,0.00
2018-02-01T04:20:07.498Z,0.00
2018-02-01T04:21:07.919Z,0.00
2018-02-01T04:22:08.346Z,0.00
2018-02-01T04:23:08.762Z,0.00
2018-02-01T04:24:09.184Z,0.00
2018-02-01T04:25:09.669Z,0.00
2018-02-01T04:26:10.030Z,0.00
2018-02-01T04:27:10.449Z,0.00
2018-02-01T04:28:10.876Z,0.00
2018-02-01T04:29:11.299Z,0.00
2018-02-01T04:30:11.720Z,0.00
2018-02-01T04:31:12.140Z,0.00
2018-02-01T04:32:12.620Z,0.00
2018-02-01T04:33:12.987Z,0.00
2018-02-01T04:34:13.411Z,0.00
2018-02-01T04:35:13.857Z,0.00
2018-02-01T04:36:14.255Z,0.00
2018-02-01T04:37:14.676Z,0.00
2018-02-01T04:38:15.097Z,0.00
2018-02-01T04:39:15.516Z,0.00
2018-02-01T04:40:15.943Z,0.00
2018-02-01T04:41:16.368Z,0.00
2018-02-01T04:42:16.785Z,0.00
2018-02-01T04:43:17.208Z,0.00
2018-02-01T04:44:17.635Z,0.00
2018-02-01T04:45:18.056Z,0.00
2018-02-01T04:46:18.481Z,0.00
2018-02-01T04:47:18.899Z,0.00
2018-02-01T04:48:19.321Z,4.00
2018-02-01T04:49:19.746Z,0.00
2018-02-01T04:50:20.171Z,0.00
2018-02-01T04:51:20.585Z,0.00
2018-02-01T04:52:21.007Z,0.00
2018-02-01T04:53:21.435Z,0.00
2018-02-01T04:54:21.856Z,0.00
2018-02-01T04:55:22.279Z,0.00
2018-02-01T04:56:22.700Z,0.00
2018-02-01T04:57:23.122Z,0.00
2018-02-01T04:58:23.546Z,0.00
2018-02-01T04:59:23.971Z,0.00
2018-02-01T05:00:24.451Z,0.00
2018-02-01T05:01:24.815Z,0.00
2018-02-01T05:02:25.235Z,0.00
2018-02-01T05:03:25.662Z,0.00
2018-02-01T05:04:26.083Z,0.00
2018-02-01T05:05:26.505Z,0.00
2018-02-01T05:06:26.924Z,0.00
2018-02-01T05:07:27.352Z,0.00
2018-02-01T05:08:27.772Z,0.00
2018-02-01T05:09:28.193Z,0.00
2018-02-01T05:10:28.615Z,0.00
2018-02-01T05:11:29.040Z,0.00
2018-02-01T05:12:29.462Z,0.00
2018-02-01T05:13:29.884Z,0.00
2018-02-01T05:14:30.310Z,0.00
2018-02-01T05:15:30.729Z,0.00
2018-02-01T05:16:31.156Z,0.00
2018-02-01T05:17:31.606Z,0.00
2018-02-01T05:18:31.998Z,0.00
2018-02-01T05:19:32.422Z,0.00
2018-02-01T05:20:32.846Z,0.00
2018-02-01T05:21:33.265Z,0.00
2018-02-01T05:22:33.686Z,0.00
2018-02-01T05:23:34.108Z,0.00
2018-02-01T05:24:34.528Z,0.00
2018-02-01T05:25:34.954Z,0.00
2018-02-01T05:26:35.373Z,0.00
2018-02-01T05:27:35.795Z,0.00
2018-02-01T05:28:36.221Z,0.00
2018-02-01T05:29:36.646Z,0.00
2018-02-01T05:30:37.064Z,0.00
2018-02-01T05:31:37.490Z,0.00
2018-02-01T05:32:37.908Z,0.00
2018-02-01T05:33:38.335Z,0.00
2018-02-01T05:34:38.757Z,0.00
2018-02-01T05:35:39.196Z,0.00
2018-02-01T05:36:39.598Z,0.00
2018-02-01T05:37:40.029Z,0.00
2018-02-01T05:38:40.448Z,0.00
2018-02-01T05:39:40.866Z,0.00
2018-02-01T05:40:41.292Z,0.00
2018-02-01T05:41:41.716Z,0.00
2018-02-01T05:42:42.137Z,0.00
2018-02-01T05:43:42.564Z,0.00
2018-02-01T05:44:42.981Z,0.00
2018-02-01T05:45:43.412Z,0.00
2018-02-01T05:46:43.828Z,0.00
2018-02-01T05:47:44.250Z,0.00
2018-02-01T05:48:44.680Z,0.00
2018-02-01T05:49:45.092Z,0.00
2018-02-01T05:50:45.516Z,0.00
2018-02-01T05:51:45.941Z,0.00
2018-02-01T05:52:46.362Z,0.00
2018-02-01T05:53:46.787Z,0.00
2018-02-01T05:54:47.211Z,0.00
2018-02-01T05:55:47.638Z,0.00
2018-02-01T05:56:48.048Z,0.00
2018-02-01T05:57:48.472Z,0.00
2018-02-01T05:58:48.896Z,0.00
2018-02-01T05:59:49.327Z,0.00
2018-02-01T06:00:49.742Z,0.00
2018-02-01T06:01:50.162Z,0.00
2018-02-01T06:02:50.581Z,0.00
2018-02-01T06:03:51.003Z,0.00
2018-02-01T06:04:51.432Z,0.00
2018-02-01T06:05:51.849Z,0.00
2018-02-01T06:06:52.273Z,0.00
2018-02-01T06:07:52.695Z,0.00
2018-02-01T06:08:53.147Z,0.00
2018-02-01T06:09:53.540Z,0.00
2018-02-01T06:10:53.961Z,0.00
2018-02-01T06:11:54.386Z,0.00
2018-02-01T06:12:54.803Z,0.00
2018-02-01T06:13:55.229Z,0.00
2018-02-01T06:14:55.650Z,0.00
2018-02-01T06:15:56.076Z,0.00
2018-02-01T06:16:56.492Z,0.00
2018-02-01T06:17:56.922Z,0.00
2018-02-01T06:18:57.341Z,4.00
2018-02-01T06:19:57.762Z,4.00
2018-02-01T06:20:58.181Z,0.00
2018-02-01T06:21:58.645Z,4.00
2018-02-01T06:22:59.034Z,4.00
2018-02-01T06:23:59.470Z,4.00
2018-02-01T06:24:59.873Z,8.00
2018-02-01T06:26:00.293Z,8.00
2018-02-01T06:27:00.718Z,8.00
2018-02-01T06:28:01.136Z,8.00
2018-02-01T06:29:01.578Z,12.00
2018-02-01T06:30:01.984Z,12.00
2018-02-01T06:31:02.405Z,16.00
2018-02-01T06:32:02.826Z,16.00
2018-02-01T06:33:03.281Z,20.00
2018-02-01T06:34:03.671Z,20.00
2018-02-01T06:35:04.092Z,20.00
2018-02-01T06:36:04.520Z,24.00
2018-02-01T06:37:04.936Z,28.00
2018-02-01T06:38:05.360Z,32.00
2018-02-01T06:39:05.780Z,40.00
2018-02-01T06:40:06.233Z,44.00
2018-02-01T06:41:06.680Z,52.00
2018-02-01T06:42:07.054Z,60.00
2018-02-01T06:43:07.471Z,68.00
2018-02-01T06:44:07.893Z,76.00
2018-02-01T06:45:08.316Z,88.00
2018-02-01T06:46:08.735Z,96.00
2018-02-01T06:47:09.160Z,104.00
2018-02-01T06:48:09.580Z,112.00
2018-02-01T06:49:10.015Z,128.00
2018-02-01T06:50:10.428Z,136.00
2018-02-01T06:51:10.847Z,148.00
2018-02-01T06:52:11.269Z,164.00
2018-02-01T06:53:11.693Z,176.00
2018-02-01T06:54:12.113Z,188.00
2018-02-01T06:55:12.536Z,196.00
2018-02-01T06:56:12.958Z,208.00
2018-02-01T06:57:13.386Z,220.00
2018-02-01T06:58:13.805Z,244.00
2018-02-01T06:59:14.230Z,268.00
2018-02-01T07:00:14.648Z,292.00
2018-02-01T07:01:15.103Z,328.00
2018-02-01T07:02:15.491Z,348.00
2018-02-01T07:03:15.913Z,356.00
2018-02-01T07:04:16.338Z,364.00
2018-02-01T07:05:16.760Z,372.00
2018-02-01T07:06:17.180Z,392.00
2018-02-01T07:07:17.605Z,420.00
2018-02-01T07:08:18.032Z,460.00
2018-02-01T07:09:18.450Z,496.00
2018-02-01T07:10:18.876Z,520.00
2018-02-01T07:11:19.298Z,560.00
2018-02-01T07:12:19.777Z,580.00
2018-02-01T07:13:20.134Z,608.00
2018-02-01T07:14:20.558Z,636.00
2018-02-01T07:15:20.980Z,648.00
2018-02-01T07:16:21.403Z,700.00
2018-02-01T07:17:21.823Z,740.00
2018-02-01T07:18:22.256Z,764.00
2018-02-01T07:19:22.673Z,816.00
2018-02-01T07:20:23.093Z,900.00
2018-02-01T07:21:23.519Z,960.00
2018-02-01T07:22:23.934Z,996.00
2018-02-01T07:23:24.358Z,992.00
2018-02-01T07:24:24.779Z,992.00
2018-02-01T07:25:25.207Z,984.00
2018-02-01T07:26:25.627Z,964.00
2018-02-01T07:27:26.054Z,920.00
2018-02-01T07:28:26.468Z,872.00
2018-02-01T07:29:26.892Z,840.00
2018-02-01T07:30:27.346Z,852.00
2018-02-01T07:31:27.738Z,888.00
2018-02-01T07:32:28.156Z,944.00
2018-02-01T07:33:28.580Z,976.00
2018-02-01T07:34:29.007Z,936.00
2018-02-01T07:35:29.422Z,924.00
2018-02-01T07:36:29.844Z,936.00
2018-02-01T07:37:30.269Z,976.00
2018-02-01T07:38:30.696Z,1020.00
2018-02-01T07:39:31.114Z,1080.00
2018-02-01T07:40:31.532Z,1092.00
2018-02-01T07:41:31.954Z,1092.00
2018-02-01T07:42:32.376Z,1128.00
2018-02-01T07:43:32.796Z,1176.00
2018-02-01T07:44:33.219Z,1236.00
2018-02-01T07:45:33.651Z,1304.00
2018-02-01T07:46:34.066Z,1420.00
2018-02-01T07:47:34.486Z,1552.00
2018-02-01T07:48:34.909Z,1612.00
2018-02-01T07:49:35.331Z,1672.00
2018-02-01T07:50:35.752Z,1756.00
2018-02-01T07:51:36.175Z,1824.00
2018-02-01T07:52:36.602Z,1940.00
2018-02-01T07:53:37.019Z,1996.00
2018-02-01T07:54:37.445Z,2012.00
2018-02-01T07:55:37.862Z,2004.00
2018-02-01T07:56:38.290Z,2016.00
2018-02-01T07:57:38.710Z,2020.00
2018-02-01T07:58:39.129Z,1996.00
2018-02-01T07:59:39.550Z,1952.00
2018-02-01T08:00:39.976Z,1908.00
2018-02-01T08:01:40.396Z,1880.00
2018-02-01T08:02:40.824Z,1944.00
2018-02-01T08:03:41.246Z,2092.00
2018-02-01T08:04:41.663Z,2244.00
2018-02-01T08:05:42.085Z,2368.00
2018-02-01T08:06:42.514Z,2424.00
2018-02-01T08:07:42.929Z,2536.00
2018-02-01T08:08:43.357Z,2636.00
2018-02-01T08:09:43.809Z,2632.00
2018-02-01T08:10:44.200Z,2528.00
2018-02-01T08:11:44.619Z,2536.00
2018-02-01T08:12:45.041Z,2504.00
2018-02-01T08:13:45.478Z,2512.00
2018-02-01T08:14:45.889Z,2500.00
2018-02-01T08:15:46.312Z,2484.00
2018-02-01T08:16:46.731Z,2448.00
2018-02-01T08:17:47.174Z,2460.00
2018-02-01T08:18:47.585Z,2388.00
2018-02-01T08:19:48.005Z,2392.00
2018-02-01T08:20:48.426Z,2560.00
2018-02-01T08:21:48.846Z,2812.00
2018-02-01T08:22:49.267Z,3016.00
2018-02-01T08:23:49.691Z,3332.00
2018-02-01T08:24:50.115Z,3688.00
2018-02-01T08:25:50.537Z,3992.00
2018-02-01T08:26:50.960Z,4148.00
2018-02-01T08:27:51.383Z,4196.00
2018-02-01T08:28:51.805Z,4300.00
2018-02-01T08:29:52.233Z,4348.00
2018-02-01T08:30:52.653Z,4328.00
2018-02-01T08:31:53.075Z,4276.00
2018-02-01T08:32:53.496Z,4332.00
2018-02-01T08:33:53.921Z,4560.00
2018-02-01T08:34:54.346Z,4692.00
2018-02-01T08:35:54.769Z,4588.00
2018-02-01T08:36:55.189Z,4524.00
2018-02-01T08:37:55.613Z,4368.00
2018-02-01T08:38:56.034Z,4124.00
2018-02-01T08:39:56.458Z,3900.00
2018-02-01T08:40:56.883Z,3924.00
2018-02-01T08:41:57.305Z,3928.00
2018-02-01T08:42:57.730Z,3904.00
2018-02-01T08:43:58.149Z,4060.00
2018-02-01T08:44:58.575Z,4388.00
2018-02-01T08:45:58.999Z,4396.00
2018-02-01T08:46:59.422Z,4216.00
2018-02-01T08:47:59.842Z,4496.00
2018-02-01T08:49:00.266Z,4664.00
2018-02-01T08:50:00.692Z,4804.00
2018-02-01T08:51:01.161Z,4764.00
2018-02-01T08:52:01.537Z,4732.00
2018-02-01T08:53:01.961Z,4780.00
2018-02-01T08:54:02.383Z,4976.00
2018-02-01T08:55:02.805Z,5076.00
2018-02-01T08:56:03.230Z,5200.00
2018-02-01T08:57:03.652Z,5316.00
2018-02-01T08:58:04.078Z,5648.00
2018-02-01T08:59:04.505Z,5752.00
2018-02-01T09:00:04.922Z,5660.00
2018-02-01T09:01:05.345Z,5576.00
2018-02-01T09:02:05.769Z,5588.00
2018-02-01T09:03:06.195Z,5472.00
2018-02-01T09:04:06.613Z,5476.00
2018-02-01T09:05:07.039Z,5588.00
2018-02-01T09:06:07.514Z,5324.00
2018-02-01T09:07:07.886Z,5340.00
2018-02-01T09:08:08.307Z,5452.00
2018-02-01T09:09:08.730Z,5448.00
2018-02-01T09:10:09.154Z,5440.00
2018-02-01T09:11:09.576Z,5532.00
2018-02-01T09:12:09.999Z,5404.00
2018-02-01T09:13:10.422Z,4896.00
2018-02-01T09:14:10.850Z,4900.00
2018-02-01T09:15:11.269Z,5144.00
2018-02-01T09:16:11.694Z,4712.00
2018-02-01T09:17:12.116Z,4468.00
2018-02-01T09:18:12.538Z,4728.00
2018-02-01T09:19:12.970Z,4656.00
2018-02-01T09:20:13.391Z,4776.00
2018-02-01T09:21:13.817Z,4756.00
2018-02-01T09:22:14.231Z,4264.00
2018-02-01T09:23:14.656Z,3832.00
2018-02-01T09:24:15.079Z,4224.00
2018-02-01T09:25:15.504Z,4444.00
2018-02-01T09:26:15.929Z,4168.00
2018-02-01T09:27:16.351Z,4552.00
2018-02-01T09:28:16.780Z,4932.00
2018-02-01T09:29:17.196Z,5816.00
2018-02-01T09:30:17.619Z,7320.00
2018-02-01T09:31:18.044Z,8028.00
2018-02-01T09:32:18.466Z,6756.00
2018-02-01T09:33:18.894Z,6584.00
2018-02-01T09:34:19.334Z,7144.00
2018-02-01T09:35:19.736Z,5892.00
2018-02-01T09:36:20.160Z,5944.00
2018-02-01T09:37:20.595Z,6284.00
2018-02-01T09:38:21.009Z,6896.00
2018-02-01T09:39:21.436Z,8476.00
2018-02-01T09:40:21.864Z,8548.00
2018-02-01T09:41:22.282Z,8252.00
2018-02-01T09:42:22.709Z,8252.00
2018-02-01T09:43:23.138Z,8904.00
2018-02-01T09:44:23.561Z,8132.00
2018-02-01T09:45:23.987Z,9072.00
2018-02-01T09:46:24.454Z,8336.00
2018-02-01T09:47:24.844Z,8856.00
2018-02-01T09:48:25.274Z,8980.00
2018-02-01T09:49:25.699Z,9536.00
2018-02-01T09:50:26.129Z,12316.00
2018-02-01T09:51:26.584Z,16928.00
2018-02-01T09:52:26.986Z,22080.00
2018-02-01T09:53:27.420Z,22336.00
2018-02-01T09:54:27.846Z,21184.00
2018-02-01T09:55:28.276Z,22240.00
2018-02-01T09:56:28.708Z,18560.00
2018-02-01T09:57:29.136Z,21472.00
2018-02-01T09:58:29.567Z,22496.00
2018-02-01T09:59:29.998Z,18752.00
2018-02-01T10:00:30.446Z,22912.00
2018-02-01T10:01:30.864Z,24480.00
2018-02-01T10:02:31.296Z,21824.00
2018-02-01T10:03:31.732Z,19104.00
2018-02-01T10:04:32.166Z,19648.00
2018-02-01T10:05:32.596Z,19456.00
2018-02-01T10:06:33.052Z,20928.00
2018-02-01T10:07:33.466Z,19296.00
2018-02-01T10:08:33.897Z,16064.00
2018-02-01T10:09:34.332Z,16864.00
2018-02-01T10:10:34.767Z,18336.00
2018-02-01T10:11:35.198Z,18464.00
2018-02-01T10:12:35.649Z,21472.00
2018-02-01T10:13:36.064Z,20640.00
2018-02-01T10:14:36.496Z,20448.00
2018-02-01T10:15:36.933Z,22944.00
2018-02-01T10:16:37.378Z,24576.00
2018-02-01T10:17:37.799Z,24320.00
2018-02-01T10:18:38.229Z,24192.00
2018-02-01T10:19:38.693Z,20096.00
2018-02-01T10:20:39.096Z,21216.00
2018-02-01T10:21:39.533Z,20704.00
2018-02-01T10:22:39.966Z,15840.00
2018-02-01T10:23:40.397Z,21376.00
2018-02-01T10:24:40.912Z,20320.00
2018-02-01T10:25:41.274Z,22592.00
2018-02-01T10:26:41.700Z,23680.00
2018-02-01T10:27:42.134Z,24544.00
2018-02-01T10:28:42.576Z,25344.00
2018-02-01T10:29:43.001Z,20640.00
2018-02-01T10:30:43.431Z,22208.00
2018-02-01T10:31:43.866Z,24832.00
2018-02-01T10:32:44.364Z,25952.00
2018-02-01T10:33:44.741Z,24992.00
2018-02-01T10:34:45.178Z,19616.00
2018-02-01T10:35:45.603Z,17952.00
2018-02-01T10:36:46.038Z,16736.00
2018-02-01T10:37:46.471Z,24736.00
2018-02-01T10:38:46.914Z,24576.00
2018-02-01T10:39:47.341Z,27360.00
2018-02-01T10:40:47.777Z,28032.00
2018-02-01T10:41:48.211Z,29888.00
2018-02-01T10:42:48.646Z,32448.00
2018-02-01T10:43:49.081Z,25280.00
2018-02-01T10:44:49.527Z,22240.00
2018-02-01T10:45:49.954Z,26656.00
2018-02-01T10:46:50.389Z,29952.00
2018-02-01T10:47:50.842Z,22976.00
2018-02-01T10:48:51.263Z,12656.00
2018-02-01T10:49:51.700Z,18272.00
2018-02-01T10:50:52.132Z,18336.00
2018-02-01T10:51:52.569Z,19200.00
2018-02-01T10:52:53.010Z,24864.00
2018-02-01T10:53:53.442Z,29664.00
2018-02-01T10:54:53.872Z,27552.00
2018-02-01T10:55:54.308Z,21696.00
2018-02-01T10:56:54.747Z,19488.00
2018-02-01T10:57:55.179Z,22752.00
2018-02-01T10:58:55.610Z,22496.00
2018-02-01T10:59:56.066Z,21024.00
2018-02-01T11:00:56.479Z,28576.00
2018-02-01T11:01:56.914Z,26144.00
2018-02-01T11:02:57.431Z,24384.00
2018-02-01T11:03:57.780Z,18624.00
2018-02-01T11:04:58.218Z,19136.00
2018-02-01T11:05:58.653Z,19616.00
2018-02-01T11:06:59.087Z,22496.00
2018-02-01T11:07:59.520Z,22656.00
2018-02-01T11:08:59.956Z,23712.00
2018-02-01T11:10:00.392Z,23840.00
2018-02-01T11:11:00.830Z,18336.00
2018-02-01T11:12:01.262Z,11972.00
2018-02-01T11:13:01.745Z,22592.00
2018-02-01T11:14:02.134Z,14648.00
2018-02-01T11:15:02.564Z,8780.00
2018-02-01T11:16:03.004Z,19232.00
2018-02-01T11:17:03.440Z,15284.00
2018-02-01T11:18:03.902Z,9672.00
2018-02-01T11:19:04.305Z,11504.00
2018-02-01T11:20:04.736Z,7612.00
2018-02-01T11:21:05.171Z,6420.00
2018-02-01T11:22:05.604Z,5456.00
2018-02-01T11:23:06.059Z,6116.00
2018-02-01T11:24:06.470Z,6228.00
2018-02-01T11:25:06.902Z,5368.00
2018-02-01T11:26:07.352Z,4372.00
2018-02-01T11:27:07.770Z,5444.00
2018-02-01T11:28:08.196Z,6536.00
2018-02-01T11:29:08.631Z,6156.00
2018-02-01T11:30:09.061Z,5808.00
2018-02-01T11:31:09.494Z,5424.00
2018-02-01T11:32:09.919Z,5648.00
2018-02-01T11:33:10.346Z,6008.00
2018-02-01T11:34:10.780Z,5840.00
2018-02-01T11:35:11.206Z,5644.00
2018-02-01T11:36:11.673Z,5936.00
2018-02-01T11:37:12.065Z,6340.00
2018-02-01T11:38:12.496Z,6712.00
2018-02-01T11:39:12.928Z,6700.00
2018-02-01T11:40:13.356Z,6296.00
2018-02-01T11:41:13.778Z,6152.00
2018-02-01T11:42:14.205Z,6056.00
2018-02-01T11:43:14.632Z,5480.00
2018-02-01T11:44:15.063Z,6888.00
2018-02-01T11:45:15.506Z,6340.00
2018-02-01T11:46:15.914Z,6088.00
2018-02-01T11:47:16.343Z,7444.00
2018-02-01T11:48:16.773Z,6712.00
2018-02-01T11:49:17.194Z,6640.00
2018-02-01T11:50:17.628Z,6752.00
2018-02-01T11:51:18.048Z,7608.00
2018-02-01T11:52:18.474Z,9156.00
2018-02-01T11:53:18.902Z,7156.00
2018-02-01T11:54:19.333Z,6680.00
2018-02-01T11:55:19.757Z,6896.00
2018-02-01T11:56:20.182Z,6624.00
2018-02-01T11:57:20.607Z,6188.00
2018-02-01T11:58:21.034Z,6504.00
2018-02-01T11:59:21.462Z,6972.00
2018-02-01T12:00:21.885Z,7216.00
2018-02-01T12:01:22.310Z,7208.00
2018-02-01T12:02:22.738Z,7184.00
2018-02-01T12:03:23.173Z,6820.00
2018-02-01T12:04:23.594Z,6844.00
2018-02-01T12:05:24.017Z,7056.00
2018-02-01T12:06:24.444Z,6920.00
2018-02-01T12:07:24.871Z,6732.00
2018-02-01T12:08:25.296Z,6160.00
2018-02-01T12:09:25.721Z,5572.00
2018-02-01T12:10:26.149Z,5188.00
2018-02-01T12:11:26.572Z,4820.00
2018-02-01T12:12:26.995Z,4756.00
2018-02-01T12:13:27.421Z,4400.00
2018-02-01T12:14:27.850Z,4112.00
2018-02-01T12:15:28.276Z,4540.00
2018-02-01T12:16:28.701Z,4328.00
2018-02-01T12:17:29.128Z,3924.00
2018-02-01T12:18:29.563Z,3420.00
2018-02-01T12:19:29.975Z,3480.00
2018-02-01T12:20:30.400Z,3500.00
2018-02-01T12:21:30.830Z,4244.00
2018-02-01T12:22:31.260Z,5780.00
2018-02-01T12:23:31.677Z,6632.00
2018-02-01T12:24:32.112Z,6272.00
2018-02-01T12:25:32.529Z,5372.00
2018-02-01T12:26:32.981Z,4708.00
2018-02-01T12:27:33.407Z,5332.00
2018-02-01T12:28:33.801Z,5316.00
2018-02-01T12:29:34.224Z,5140.00
2018-02-01T12:30:34.650Z,5376.00
2018-02-01T12:31:35.074Z,6352.00
2018-02-01T12:32:35.503Z,6736.00
2018-02-01T12:33:35.925Z,5552.00
2018-02-01T12:34:36.370Z,4684.00
2018-02-01T12:35:36.776Z,4820.00
2018-02-01T12:36:37.217Z,5308.00
2018-02-01T12:37:37.661Z,5572.00
2018-02-01T12:38:38.053Z,4832.00
2018-02-01T12:39:38.475Z,4364.00
2018-02-01T12:40:38.902Z,5732.00
2018-02-01T12:41:39.325Z,5960.00
2018-02-01T12:42:39.752Z,6380.00
2018-02-01T12:43:40.178Z,5804.00
2018-02-01T12:44:40.605Z,6056.00
2018-02-01T12:45:41.034Z,6604.00